createdAt,value
2022-10-12T00:01:01.437Z,9.10
2022-10-12T00:03:05.690Z,9.20
2022-10-12T00:05:09.217Z,9.20
2022-10-12T00:07:12.090Z,9.20
2022-10-12T00:09:14.919Z,9.10
2022-10-12T00:11:20.703Z,9.10
2022-10-12T00:13:23.893Z,9.10
2022-10-12T00:15:26.770Z,9.10
2022-10-12T00:17:29.581Z,9.00
2022-10-12T00:19:33.853Z,9.00
2022-10-12T00:21:36.717Z,9.00
2022-10-12T00:23:40.410Z,9.00
2022-10-12T00:25:43.497Z,9.00
2022-10-12T00:27:46.835Z,8.90
2022-10-12T00:29:49.739Z,8.90
2022-10-12T00:31:52.642Z,8.90
2022-10-12T00:33:55.497Z,8.90
2022-10-12T00:35:59.694Z,8.90
2022-10-12T00:38:02.493Z,8.90
2022-10-12T00:40:06.143Z,8.80
2022-10-12T00:42:11.243Z,8.80
2022-10-12T00:44:40.544Z,8.80
2022-10-12T00:46:46.970Z,8.80
2022-10-12T00:48:56.337Z,8.80
2022-10-12T00:51:02.461Z,8.80
2022-10-12T00:53:10.704Z,8.80
2022-10-12T00:55:18.590Z,8.70
2022-10-12T00:57:22.657Z,8.70
2022-10-12T00:59:30.090Z,8.70
2022-10-12T01:01:35.609Z,8.70
2022-10-12T01:03:38.916Z,8.60
2022-10-12T01:05:42.008Z,8.60
2022-10-12T01:07:46.215Z,8.60
2022-10-12T01:09:49.903Z,8.70
2022-10-12T01:11:52.777Z,8.60
2022-10-12T01:13:55.586Z,8.50
2022-10-12T01:16:06.414Z,8.50
2022-10-12T01:18:16.448Z,8.50
2022-10-12T01:20:52.147Z,8.50
2022-10-12T01:23:13.625Z,8.50
2022-10-12T01:25:31.539Z,8.50
2022-10-12T01:28:00.330Z,8.50
2022-10-12T01:30:22.883Z,8.50
2022-10-12T01:32:31.616Z,8.50
2022-10-12T01:34:42.185Z,8.50
2022-10-12T01:36:50.087Z,8.50
2022-10-12T01:38:58.430Z,8.50
2022-10-12T01:41:07.812Z,8.50
2022-10-12T01:43:10.655Z,8.50
2022-10-12T01:45:17.116Z,8.40
2022-10-12T01:47:21.763Z,8.40
2022-10-12T01:49:26.900Z,8.40
2022-10-12T01:51:36.300Z,8.40
2022-10-12T01:53:45.786Z,8.40
2022-10-12T01:55:53.879Z,8.40
2022-10-12T01:58:20.082Z,8.40
2022-10-12T02:00:23.245Z,8.40
2022-10-12T02:02:33.947Z,8.30
2022-10-12T02:04:42.458Z,8.30
2022-10-12T02:06:50.119Z,8.30
2022-10-12T02:08:59.034Z,8.30
2022-10-12T02:11:07.066Z,8.30
2022-10-12T02:13:13.524Z,8.30
2022-10-12T02:15:18.991Z,8.30
2022-10-12T02:17:23.941Z,8.20
2022-10-12T02:19:31.471Z,8.20
2022-10-12T02:21:35.904Z,8.20
2022-10-12T02:23:39.794Z,8.10
2022-10-12T02:25:43.039Z,8.10
2022-10-12T02:27:50.936Z,8.10
2022-10-12T02:29:54.084Z,8.10
2022-10-12T02:32:03.307Z,8.10
2022-10-12T02:34:12.526Z,8.10
2022-10-12T02:36:24.042Z,8.10
2022-10-12T02:38:31.292Z,8.10
2022-10-12T02:40:37.391Z,8.10
2022-10-12T02:43:08.805Z,8.00
2022-10-12T02:45:10.879Z,8.00
2022-10-12T02:47:15.616Z,8.00
2022-10-12T02:49:19.286Z,8.00
2022-10-12T02:51:24.754Z,8.00
2022-10-12T02:53:30.939Z,8.00
2022-10-12T02:55:38.306Z,8.00
2022-10-12T02:57:41.213Z,8.00
2022-10-12T02:59:44.049Z,8.00
2022-10-12T03:01:47.234Z,7.90
2022-10-12T03:03:50.257Z,7.90
2022-10-12T03:05:53.113Z,7.90
2022-10-12T03:07:57.315Z,7.90
2022-10-12T03:10:00.160Z,7.90
2022-10-12T03:12:03.013Z,7.80
2022-10-12T03:14:05.807Z,7.80
2022-10-12T03:16:10.883Z,7.80
2022-10-12T03:18:13.746Z,7.80
2022-10-12T03:20:16.651Z,7.80
2022-10-12T03:22:19.494Z,7.80
2022-10-12T03:24:23.656Z,7.80
2022-10-12T03:26:26.501Z,7.70
2022-10-12T03:28:29.506Z,7.70
2022-10-12T03:30:32.363Z,7.70
2022-10-12T03:32:35.274Z,7.70
2022-10-12T03:34:38.457Z,7.70
2022-10-12T03:36:41.326Z,7.70
2022-10-12T03:38:44.150Z,7.70
2022-10-12T03:40:48.719Z,7.70
2022-10-12T03:42:51.585Z,7.70
2022-10-12T03:44:54.390Z,7.70
2022-10-12T03:46:57.286Z,7.70
2022-10-12T03:49:00.103Z,7.70
2022-10-12T03:51:02.989Z,7.70
2022-10-12T03:53:06.911Z,7.70
2022-10-12T03:55:10.644Z,7.60
2022-10-12T03:57:14.817Z,7.60
2022-10-12T03:59:17.725Z,7.60
2022-10-12T04:01:20.659Z,7.60
2022-10-12T04:03:23.832Z,7.60
2022-10-12T04:05:26.745Z,7.60
2022-10-12T04:07:29.567Z,7.60
2022-10-12T04:09:32.357Z,7.60
2022-10-12T04:11:35.295Z,7.60
2022-10-12T04:13:39.609Z,7.60
2022-10-12T04:15:42.426Z,7.60
2022-10-12T04:17:45.661Z,7.60
2022-10-12T04:19:48.548Z,7.60
2022-10-12T04:21:51.405Z,7.60
2022-10-12T04:23:54.360Z,7.50
2022-10-12T04:25:57.210Z,7.50
2022-10-12T04:28:00.199Z,7.60
2022-10-12T04:30:04.806Z,7.50
2022-10-12T04:32:12.337Z,7.50
2022-10-12T04:34:15.769Z,7.50
2022-10-12T04:36:18.651Z,7.50
2022-10-12T04:38:21.481Z,7.50
2022-10-12T04:40:24.474Z,7.50
2022-10-12T04:42:27.487Z,7.50
2022-10-12T04:44:32.427Z,7.50
2022-10-12T04:46:36.770Z,7.50
2022-10-12T04:48:40.082Z,7.50
2022-10-12T04:50:43.986Z,7.50
2022-10-12T04:52:46.756Z,7.40
2022-10-12T04:54:49.586Z,7.50
2022-10-12T04:56:52.415Z,7.40
2022-10-12T04:58:55.298Z,7.40
2022-10-12T05:00:58.679Z,7.40
2022-10-12T05:03:02.925Z,7.40
2022-10-12T05:05:09.199Z,7.40
2022-10-12T05:07:12.074Z,7.40
2022-10-12T05:09:17.053Z,7.40
2022-10-12T05:11:20.363Z,7.30
2022-10-12T05:13:23.165Z,7.30
2022-10-12T05:15:26.336Z,7.30
2022-10-12T05:17:29.213Z,7.30
2022-10-12T05:19:33.447Z,7.30
2022-10-12T05:21:36.315Z,7.30
2022-10-12T05:23:39.142Z,7.20
2022-10-12T05:25:42.406Z,7.20
2022-10-12T05:27:45.369Z,7.30
2022-10-12T05:29:48.232Z,7.30
2022-10-12T05:31:51.020Z,7.30
2022-10-12T05:33:53.886Z,7.30
2022-10-12T05:35:58.059Z,7.30
2022-10-12T05:38:01.016Z,7.20
2022-10-12T05:40:04.541Z,7.20
2022-10-12T05:42:07.467Z,7.20
2022-10-12T05:44:10.308Z,7.20
2022-10-12T05:46:14.474Z,7.20
2022-10-12T05:48:17.685Z,7.20
2022-10-12T05:50:21.289Z,7.20
2022-10-12T05:52:25.424Z,7.30
2022-10-12T05:54:28.274Z,7.30
2022-10-12T05:56:31.241Z,7.30
2022-10-12T05:58:34.217Z,7.30
2022-10-12T06:00:37.048Z,7.30
2022-10-12T06:02:40.132Z,7.30
2022-10-12T06:04:43.549Z,7.40
2022-10-12T06:06:46.378Z,7.40
2022-10-12T06:08:50.571Z,7.40
2022-10-12T06:10:53.966Z,7.40
2022-10-12T06:12:56.846Z,7.50
2022-10-12T06:14:59.672Z,7.50
2022-10-12T06:17:02.582Z,7.50
2022-10-12T06:19:05.455Z,7.50
2022-10-12T06:21:32.024Z,7.60
2022-10-12T06:23:31.422Z,7.60
2022-10-12T06:25:35.797Z,7.70
2022-10-12T06:27:38.605Z,7.70
2022-10-12T06:29:41.501Z,7.70
2022-10-12T06:31:48.995Z,7.80
2022-10-12T06:33:54.245Z,7.80
2022-10-12T06:35:57.619Z,7.90
2022-10-12T06:38:00.569Z,7.90
2022-10-12T06:40:03.543Z,8.00
2022-10-12T06:42:08.931Z,8.00
2022-10-12T06:44:11.766Z,8.00
2022-10-12T06:46:14.562Z,8.10
2022-10-12T06:48:18.715Z,8.10
2022-10-12T06:50:22.090Z,8.20
2022-10-12T06:52:24.902Z,8.30
2022-10-12T06:54:27.786Z,8.30
2022-10-12T06:56:31.319Z,8.40
2022-10-12T06:58:35.687Z,8.40
2022-10-12T07:00:38.793Z,8.50
2022-10-12T07:02:41.941Z,8.50
2022-10-12T07:04:44.792Z,8.60
2022-10-12T07:06:47.621Z,8.70
2022-10-12T07:08:50.442Z,8.70
2022-10-12T07:11:01.611Z,8.80
2022-10-12T07:13:04.471Z,8.90
2022-10-12T07:15:10.171Z,9.00
2022-10-12T07:17:13.025Z,9.00
2022-10-12T07:19:15.874Z,9.10
2022-10-12T07:21:18.727Z,9.10
2022-10-12T07:23:21.548Z,9.20
2022-10-12T07:25:24.333Z,9.30
2022-10-12T07:27:27.310Z,9.40
2022-10-12T07:29:32.269Z,9.40
2022-10-12T07:31:36.604Z,9.50
2022-10-12T07:33:39.680Z,9.60
2022-10-12T07:36:03.302Z,9.60
2022-10-12T07:38:05.670Z,9.70
2022-10-12T07:40:09.842Z,9.80
2022-10-12T07:42:18.253Z,9.80
2022-10-12T07:44:24.420Z,9.80
2022-10-12T07:46:27.364Z,9.90
2022-10-12T07:48:31.687Z,9.90
2022-10-12T07:50:36.519Z,10.00
2022-10-12T07:52:39.598Z,10.10
2022-10-12T07:54:42.510Z,10.10
2022-10-12T07:56:46.622Z,10.20
2022-10-12T07:58:50.891Z,10.30
2022-10-12T08:00:53.661Z,10.40
2022-10-12T08:02:56.525Z,10.50
2022-10-12T08:05:00.791Z,10.60
2022-10-12T08:07:03.723Z,10.60
2022-10-12T08:09:06.650Z,10.70
2022-10-12T08:11:10.295Z,10.80
2022-10-12T08:13:13.247Z,10.80
2022-10-12T08:15:16.343Z,10.90
2022-10-12T08:17:19.215Z,11.00
2022-10-12T08:19:22.092Z,11.10
2022-10-12T08:21:26.299Z,11.20
2022-10-12T08:23:29.316Z,11.30
2022-10-12T08:25:32.124Z,11.40
2022-10-12T08:27:35.867Z,11.50
2022-10-12T08:29:39.540Z,11.60
2022-10-12T08:31:42.352Z,11.80
2022-10-12T08:33:45.324Z,11.90
2022-10-12T08:35:49.167Z,12.10
2022-10-12T08:37:53.331Z,12.20
2022-10-12T08:40:00.881Z,12.30
2022-10-12T08:42:17.454Z,12.40
2022-10-12T08:44:36.846Z,12.60
2022-10-12T08:46:40.112Z,12.70
2022-10-12T08:48:48.133Z,12.90
2022-10-12T08:50:54.548Z,12.90
2022-10-12T08:53:04.925Z,13.10
2022-10-12T08:55:20.299Z,13.20
2022-10-12T08:57:23.165Z,13.40
2022-10-12T08:59:27.142Z,13.50
2022-10-12T09:01:37.157Z,13.60
2022-10-12T09:03:49.783Z,13.70
2022-10-12T09:06:03.923Z,13.80
2022-10-12T09:08:15.837Z,13.90
2022-10-12T09:10:34.209Z,14.10
2022-10-12T09:12:46.997Z,14.20
2022-10-12T09:14:54.739Z,14.30
2022-10-12T09:16:58.282Z,14.40
2022-10-12T09:19:05.991Z,14.50
2022-10-12T09:21:12.752Z,14.60
2022-10-12T09:23:25.290Z,14.70
2022-10-12T09:25:29.313Z,14.80
2022-10-12T09:27:32.936Z,14.90
2022-10-12T09:29:35.741Z,14.90
2022-10-12T09:31:47.636Z,15.00
2022-10-12T09:33:55.085Z,15.20
2022-10-12T09:35:58.857Z,15.30
2022-10-12T09:38:02.653Z,15.40
2022-10-12T09:40:08.408Z,15.50
2022-10-12T09:42:12.438Z,15.60
2022-10-12T09:44:21.251Z,15.80
2022-10-12T09:46:30.003Z,15.80
2022-10-12T09:48:32.814Z,15.90
2022-10-12T09:50:41.457Z,15.90
2022-10-12T09:52:46.073Z,15.90
2022-10-12T09:54:51.988Z,15.90
2022-10-12T09:56:56.325Z,16.00
2022-10-12T09:59:02.943Z,16.10
2022-10-12T10:01:24.239Z,16.00
2022-10-12T10:03:30.587Z,16.20
2022-10-12T10:05:35.834Z,16.20
2022-10-12T10:07:38.857Z,16.30
2022-10-12T10:09:41.738Z,16.30
2022-10-12T10:11:44.622Z,16.40
2022-10-12T10:13:54.776Z,16.40
2022-10-12T10:16:05.814Z,16.50
2022-10-12T10:18:21.246Z,16.60
2022-10-12T10:20:34.444Z,16.60
2022-10-12T10:22:37.365Z,16.70
2022-10-12T10:24:41.070Z,16.70
2022-10-12T10:26:55.654Z,16.80
2022-10-12T10:29:17.695Z,16.80
2022-10-12T10:31:24.935Z,16.90
2022-10-12T10:33:27.989Z,17.00
2022-10-12T10:35:30.893Z,17.00
2022-10-12T10:37:34.710Z,17.10
2022-10-12T10:39:46.386Z,17.10
2022-10-12T10:41:50.119Z,17.20
2022-10-12T10:43:52.994Z,17.20
2022-10-12T10:46:00.648Z,17.30
2022-10-12T10:48:09.630Z,17.30
2022-10-12T10:50:26.912Z,17.30
2022-10-12T10:52:32.195Z,17.40
2022-10-12T10:54:38.395Z,17.50
2022-10-12T10:56:41.260Z,17.60
2022-10-12T10:58:46.480Z,17.60
2022-10-12T11:00:50.426Z,17.60
2022-10-12T11:02:57.469Z,17.60
2022-10-12T11:05:07.079Z,17.70
2022-10-12T11:07:19.230Z,17.70
2022-10-12T11:09:29.859Z,17.70
2022-10-12T11:11:35.897Z,17.80
2022-10-12T11:13:44.666Z,17.90
2022-10-12T11:15:51.824Z,18.00
2022-10-12T11:18:02.075Z,18.00
2022-10-12T11:20:30.216Z,18.10
2022-10-12T11:22:40.316Z,18.10
2022-10-12T11:24:47.083Z,18.10
2022-10-12T11:26:54.679Z,18.10
2022-10-12T11:29:00.479Z,18.20
2022-10-12T11:31:03.860Z,18.20
2022-10-12T11:33:13.293Z,18.30
2022-10-12T11:35:18.474Z,18.30
2022-10-12T11:37:24.705Z,18.40
2022-10-12T11:39:34.059Z,18.40
2022-10-12T11:42:03.190Z,18.30
2022-10-12T11:44:16.618Z,18.30
2022-10-12T11:46:28.418Z,18.40
2022-10-12T11:48:37.817Z,18.40
2022-10-12T11:50:43.305Z,18.40
2022-10-12T11:52:49.167Z,18.50
2022-10-12T11:54:56.793Z,18.60
2022-10-12T11:57:04.777Z,18.60
2022-10-12T11:59:17.833Z,18.60
2022-10-12T12:01:47.994Z,18.60
2022-10-12T12:04:36.504Z,18.70
2022-10-12T12:06:51.347Z,18.70
2022-10-12T12:09:07.025Z,18.80
2022-10-12T12:11:21.486Z,18.80
2022-10-12T12:13:27.221Z,18.90
2022-10-12T12:15:30.358Z,18.80
2022-10-12T12:17:34.500Z,18.80
2022-10-12T12:19:40.882Z,18.80
2022-10-12T12:22:28.675Z,18.80
2022-10-12T12:24:31.836Z,18.80
2022-10-12T12:26:35.226Z,18.80
2022-10-12T12:28:39.941Z,18.80
2022-10-12T12:30:42.842Z,18.80
2022-10-12T12:32:48.331Z,18.70
2022-10-12T12:35:00.283Z,18.70
2022-10-12T12:37:13.486Z,18.70
2022-10-12T12:39:24.299Z,18.70
2022-10-12T12:41:47.571Z,18.70
2022-10-12T12:43:58.041Z,18.70
2022-10-12T12:46:01.970Z,18.70
2022-10-12T12:50:32.725Z,18.70
2022-10-12T12:52:40.736Z,18.70
2022-10-12T12:54:54.489Z,18.80
2022-10-12T12:57:35.791Z,18.80
2022-10-12T13:00:11.690Z,18.80
2022-10-12T13:02:37.634Z,18.80
2022-10-12T13:05:11.443Z,18.80
2022-10-12T13:07:47.710Z,18.80
2022-10-12T13:10:04.196Z,18.70
2022-10-12T13:12:25.876Z,18.80
2022-10-12T13:14:42.735Z,18.80
2022-10-12T13:19:22.632Z,19.00
2022-10-12T13:21:27.640Z,19.00
2022-10-12T13:23:32.098Z,19.10
2022-10-12T13:25:37.581Z,19.10
2022-10-12T13:27:46.456Z,19.20
2022-10-12T13:29:56.309Z,19.20
2022-10-12T13:32:03.561Z,19.20
2022-10-12T13:34:13.730Z,19.20
2022-10-12T13:36:22.172Z,19.20
2022-10-12T13:38:26.921Z,19.30
2022-10-12T13:40:33.169Z,19.40
2022-10-12T13:42:36.553Z,19.40
2022-10-12T13:44:39.410Z,19.40
2022-10-12T13:46:45.166Z,19.50
2022-10-12T13:49:05.476Z,19.50
2022-10-12T13:51:23.851Z,19.50
2022-10-12T13:53:28.099Z,19.50
2022-10-12T13:55:32.282Z,19.50
2022-10-12T13:57:41.170Z,19.50
2022-10-12T13:59:44.366Z,19.60
2022-10-12T14:01:52.951Z,19.70
2022-10-12T14:04:04.358Z,19.70
2022-10-12T14:06:07.757Z,19.70
2022-10-12T14:08:15.597Z,19.70
2022-10-12T14:10:24.154Z,19.70
2022-10-12T14:12:30.254Z,19.60
2022-10-12T14:14:35.997Z,19.60
2022-10-12T14:16:38.919Z,19.70
2022-10-12T14:18:43.443Z,19.60
2022-10-12T14:20:46.332Z,19.70
2022-10-12T14:22:51.122Z,19.70
2022-10-12T14:25:08.858Z,19.70
2022-10-12T14:27:23.729Z,19.80
2022-10-12T14:29:32.970Z,19.80
2022-10-12T14:31:49.679Z,19.90
2022-10-12T14:33:52.717Z,19.90
2022-10-12T14:36:14.048Z,19.90
2022-10-12T14:38:39.530Z,19.90
2022-10-12T14:40:42.524Z,19.90
2022-10-12T14:42:55.455Z,20.00
2022-10-12T14:44:59.978Z,20.00
2022-10-12T14:47:07.451Z,20.00
2022-10-12T14:49:17.517Z,20.00
2022-10-12T14:51:20.335Z,20.00
2022-10-12T14:53:29.047Z,20.10
2022-10-12T14:55:33.867Z,20.10
2022-10-12T14:57:36.720Z,20.10
2022-10-12T14:59:39.588Z,20.10
2022-10-12T15:01:47.570Z,20.10
2022-10-12T15:03:50.677Z,20.20
2022-10-12T15:05:53.489Z,20.20
2022-10-12T15:07:56.484Z,20.20
2022-10-12T15:09:59.442Z,20.20
2022-10-12T15:12:02.295Z,20.20
2022-10-12T15:14:05.191Z,20.20
2022-10-12T15:16:19.513Z,20.10
2022-10-12T15:18:23.683Z,20.10
2022-10-12T15:20:26.858Z,20.10
2022-10-12T15:22:29.928Z,20.00
2022-10-12T15:24:32.731Z,20.00
2022-10-12T15:26:40.051Z,20.00
2022-10-12T15:28:45.877Z,20.00
2022-10-12T15:31:12.223Z,19.90
2022-10-12T15:33:13.110Z,19.90
2022-10-12T15:35:20.569Z,19.90
2022-10-12T15:37:26.311Z,19.80
2022-10-12T15:39:29.819Z,19.80
2022-10-12T15:41:32.667Z,19.80
2022-10-12T15:43:38.124Z,19.70
2022-10-12T15:45:45.268Z,19.70
2022-10-12T15:47:48.799Z,19.70
2022-10-12T15:49:51.657Z,19.60
2022-10-12T15:51:56.141Z,19.60
2022-10-12T15:53:58.975Z,19.50
2022-10-12T15:56:01.825Z,19.50
2022-10-12T15:58:04.887Z,19.40
2022-10-12T16:00:09.009Z,19.30
2022-10-12T16:02:13.202Z,19.30
2022-10-12T16:04:16.580Z,19.30
2022-10-12T16:06:19.532Z,19.20
2022-10-12T16:08:23.762Z,19.20
2022-10-12T16:10:29.610Z,19.10
2022-10-12T16:12:32.451Z,19.10
2022-10-12T16:14:35.236Z,18.90
2022-10-12T16:16:38.847Z,18.80
2022-10-12T16:18:41.754Z,18.80
2022-10-12T16:20:47.618Z,18.70
2022-10-12T16:22:56.062Z,18.60
2022-10-12T16:25:00.282Z,18.60
2022-10-12T16:27:03.162Z,18.50
2022-10-12T16:29:06.040Z,18.50
2022-10-12T16:31:15.291Z,18.50
2022-10-12T16:33:19.383Z,18.40
2022-10-12T16:35:22.242Z,18.40
2022-10-12T16:37:25.274Z,18.30
2022-10-12T16:39:28.261Z,18.30
2022-10-12T16:41:34.095Z,18.20
2022-10-12T16:43:37.202Z,18.10
2022-10-12T16:45:40.048Z,18.10
2022-10-12T16:47:43.183Z,18.00
2022-10-12T16:49:46.355Z,17.90
2022-10-12T16:51:49.334Z,17.90
2022-10-12T16:53:52.130Z,17.80
2022-10-12T16:55:55.017Z,17.70
2022-10-12T16:57:59.254Z,17.70
2022-10-12T17:00:02.779Z,17.60
2022-10-12T17:02:05.937Z,17.60
2022-10-12T17:04:08.912Z,17.50
2022-10-12T17:06:12.156Z,17.40
2022-10-12T17:08:15.793Z,17.30
2022-10-12T17:10:18.839Z,17.20
2022-10-12T17:12:21.699Z,17.20
2022-10-12T17:14:25.922Z,17.10
2022-10-12T17:17:00.821Z,17.10
2022-10-12T17:19:04.517Z,17.00
2022-10-12T17:21:07.459Z,16.90
2022-10-12T17:23:10.325Z,16.80
2022-10-12T17:25:13.165Z,16.80
2022-10-12T17:27:16.803Z,16.70
2022-10-12T17:29:28.639Z,16.60
2022-10-12T17:31:31.635Z,16.60
2022-10-12T17:33:34.855Z,16.50
2022-10-12T17:35:40.796Z,16.50
2022-10-12T17:37:43.621Z,16.40
2022-10-12T17:39:48.300Z,16.40
2022-10-12T17:41:52.856Z,16.30
2022-10-12T17:43:55.828Z,16.20
2022-10-12T17:46:00.180Z,16.20
2022-10-12T17:48:03.272Z,16.10
2022-10-12T17:50:07.036Z,16.00
2022-10-12T17:52:09.928Z,15.90
2022-10-12T17:54:12.836Z,15.90
2022-10-12T17:56:16.563Z,15.80
2022-10-12T17:58:19.569Z,15.80
2022-10-12T18:00:22.795Z,15.80
2022-10-12T18:02:27.071Z,15.80
2022-10-12T18:04:30.287Z,15.70
2022-10-12T18:06:34.924Z,15.70
2022-10-12T18:08:38.178Z,15.60
2022-10-12T18:10:42.439Z,15.60
2022-10-12T18:12:45.563Z,15.50
2022-10-12T18:14:48.709Z,15.50
2022-10-12T18:16:54.331Z,15.40
2022-10-12T18:18:59.683Z,15.30
2022-10-12T18:21:07.123Z,15.20
2022-10-12T18:23:10.096Z,15.20
2022-10-12T18:25:13.188Z,15.20
2022-10-12T18:27:16.140Z,15.10
2022-10-12T18:29:19.431Z,15.00
2022-10-12T18:31:24.503Z,14.90
2022-10-12T18:33:27.681Z,14.90
2022-10-12T18:35:34.852Z,14.80
2022-10-12T18:37:37.785Z,14.80
2022-10-12T18:39:42.466Z,14.70
2022-10-12T18:41:47.291Z,14.70
2022-10-12T18:43:55.307Z,14.70
2022-10-12T18:45:58.719Z,14.70
2022-10-12T18:48:01.880Z,14.70
2022-10-12T18:50:05.456Z,14.60
2022-10-12T18:52:09.753Z,14.60
2022-10-12T18:54:14.010Z,14.50
2022-10-12T18:56:17.551Z,14.50
2022-10-12T18:58:20.667Z,14.40
2022-10-12T19:00:23.754Z,14.30
2022-10-12T19:02:26.717Z,14.30
2022-10-12T19:04:29.552Z,14.20
2022-10-12T19:06:34.721Z,14.10
2022-10-12T19:08:38.968Z,14.10
2022-10-12T19:10:42.447Z,14.10
2022-10-12T19:12:45.908Z,14.00
2022-10-12T19:14:49.353Z,14.00
2022-10-12T19:16:52.473Z,13.90
2022-10-12T19:18:57.036Z,13.90
2022-10-12T19:21:03.966Z,13.90
2022-10-12T19:23:06.849Z,13.90
2022-10-12T19:25:11.330Z,13.90
2022-10-12T19:27:14.178Z,13.80
2022-10-12T19:29:17.103Z,13.80
2022-10-12T19:31:21.893Z,13.80
2022-10-12T19:33:24.657Z,13.80
2022-10-12T19:35:28.665Z,13.70
2022-10-12T19:37:31.511Z,13.70
2022-10-12T19:39:34.757Z,13.60
2022-10-12T19:41:39.508Z,13.50
2022-10-12T19:43:44.035Z,13.50
2022-10-12T19:45:50.478Z,13.50
2022-10-12T19:47:53.286Z,13.40
2022-10-12T19:49:56.176Z,13.40
2022-10-12T19:51:58.989Z,13.30
2022-10-12T19:54:04.793Z,13.30
2022-10-12T19:56:10.260Z,13.30
2022-10-12T19:58:14.439Z,13.20
2022-10-12T20:00:17.866Z,13.20
2022-10-12T20:02:21.135Z,13.20
2022-10-12T20:04:24.154Z,13.20
2022-10-12T20:06:30.558Z,13.30
2022-10-12T20:08:34.268Z,13.20
2022-10-12T20:10:38.070Z,13.20
2022-10-12T20:12:40.889Z,13.20
2022-10-12T20:14:45.161Z,13.10
2022-10-12T20:16:48.071Z,13.10
2022-10-12T20:18:51.354Z,13.10
2022-10-12T20:20:54.474Z,13.00
2022-10-12T20:22:59.046Z,12.90
2022-10-12T20:25:06.997Z,12.90
2022-10-12T20:27:12.424Z,12.90
2022-10-12T20:29:15.408Z,12.90
2022-10-12T20:31:23.249Z,12.90
2022-10-12T20:33:26.092Z,12.90
2022-10-12T20:35:29.048Z,12.90
2022-10-12T20:37:33.146Z,12.90
2022-10-12T20:39:36.147Z,12.90
2022-10-12T20:41:40.319Z,12.80
2022-10-12T20:43:43.213Z,12.80
2022-10-12T20:45:45.981Z,12.80
2022-10-12T20:47:50.301Z,12.70
2022-10-12T20:49:53.237Z,12.80
2022-10-12T20:51:56.030Z,12.80
2022-10-12T20:54:00.799Z,12.70
2022-10-12T20:56:05.512Z,12.70
2022-10-12T20:58:08.340Z,12.70
2022-10-12T21:00:11.901Z,12.70
2022-10-12T21:02:15.145Z,12.70
2022-10-12T21:04:19.574Z,12.60
2022-10-12T21:06:23.735Z,12.60
2022-10-12T21:08:26.784Z,12.60
2022-10-12T21:10:29.817Z,12.60
2022-10-12T21:12:32.605Z,12.60
2022-10-12T21:14:35.486Z,12.50
2022-10-12T21:16:38.292Z,12.50
2022-10-12T21:18:42.128Z,12.50
2022-10-12T21:20:54.551Z,12.50
2022-10-12T21:22:57.391Z,12.40
2022-10-12T21:25:00.174Z,12.40
2022-10-12T21:27:04.637Z,12.40
2022-10-12T21:29:07.521Z,12.40
2022-10-12T21:31:11.306Z,12.30
2022-10-12T21:33:15.238Z,12.30
2022-10-12T21:35:18.136Z,12.30
2022-10-12T21:37:22.339Z,12.30
2022-10-12T21:39:25.811Z,12.30
2022-10-12T21:41:30.105Z,12.30
2022-10-12T21:43:33.001Z,12.30
2022-10-12T21:45:35.787Z,12.30
2022-10-12T21:47:38.626Z,12.20
2022-10-12T21:49:41.534Z,12.30
2022-10-12T21:51:44.495Z,12.30
2022-10-12T21:53:49.096Z,12.30
2022-10-12T21:55:51.932Z,12.30
2022-10-12T21:57:54.777Z,12.40
2022-10-12T21:59:57.677Z,12.30
2022-10-12T22:02:00.554Z,12.40
2022-10-12T22:04:06.200Z,12.40
2022-10-12T22:06:13.330Z,12.40
2022-10-12T22:08:16.110Z,12.50
2022-10-12T22:10:20.284Z,12.50
2022-10-12T22:12:23.073Z,12.50
2022-10-12T22:14:25.850Z,12.60
2022-10-12T22:16:30.111Z,12.60
2022-10-12T22:18:33.676Z,12.60
2022-10-12T22:20:37.325Z,12.60
2022-10-12T22:22:40.211Z,12.60
2022-10-12T22:24:43.086Z,12.60
2022-10-12T22:26:49.465Z,12.60
2022-10-12T22:28:56.510Z,12.60
2022-10-12T22:30:59.399Z,12.60
2022-10-12T22:33:02.211Z,12.60
2022-10-12T22:35:05.522Z,12.60
2022-10-12T22:37:08.346Z,12.60
2022-10-12T22:39:11.198Z,12.60
2022-10-12T22:41:16.379Z,12.60
2022-10-12T22:43:20.514Z,12.70
2022-10-12T22:45:28.011Z,12.60
2022-10-12T22:47:31.137Z,12.70
2022-10-12T22:49:33.998Z,12.60
2022-10-12T22:51:39.269Z,12.70
2022-10-12T22:53:42.148Z,12.70
2022-10-12T22:55:45.476Z,12.70
2022-10-12T22:57:48.402Z,12.70
2022-10-12T22:59:52.548Z,12.70
2022-10-12T23:01:55.350Z,12.60
2022-10-12T23:03:58.297Z,12.60
2022-10-12T23:06:01.670Z,12.60
2022-10-12T23:08:04.694Z,12.60
2022-10-12T23:10:08.629Z,12.50
2022-10-12T23:12:11.520Z,12.50
2022-10-12T23:14:14.280Z,12.50
2022-10-12T23:16:20.343Z,12.50
2022-10-12T23:18:23.113Z,12.40
2022-10-12T23:20:26.038Z,12.40
2022-10-12T23:22:29.131Z,12.40
2022-10-12T23:24:31.919Z,12.40
2022-10-12T23:26:35.300Z,12.30
2022-10-12T23:28:40.145Z,12.30
2022-10-12T23:30:42.992Z,12.30
2022-10-12T23:32:47.161Z,12.30
2022-10-12T23:34:49.992Z,12.30
2022-10-12T23:36:52.821Z,12.30
2022-10-12T23:38:55.753Z,12.20
2022-10-12T23:40:59.037Z,12.20
2022-10-12T23:43:02.069Z,12.20
2022-10-12T23:45:05.772Z,12.20
2022-10-12T23:47:08.577Z,12.20
2022-10-12T23:49:12.879Z,12.20
2022-10-12T23:51:15.664Z,12.20
2022-10-12T23:53:19.015Z,12.10
2022-10-12T23:55:21.858Z,12.10
2022-10-12T23:57:45.707Z,12.20
2022-10-12T23:59:47.520Z,12.20
